sensor_id;sensor_type;location;lat;lon;timestamp;pressure;altitude;pressure_sealevel;temperature;humidity
70343;BME280;57767;42.068;24.752;2023-01-27T00:00:50;98157.72;;;1.32;89.40
70343;BME280;57767;42.068;24.752;2023-01-27T00:01:52;98158.38;;;1.34;89.26
70343;BME280;57767;42.068;24.752;2023-01-27T00:02:54;98160.66;;;1.37;89.19
70343;BME280;57767;42.068;24.752;2023-01-27T00:03:56;98172.69;;;1.38;89.13
70343;BME280;57767;42.068;24.752;2023-01-27T00:04:58;98172.03;;;1.36;89.19
70343;BME280;57767;42.068;24.752;2023-01-27T00:06:00;98171.06;;;1.37;88.81
70343;BME280;57767;42.068;24.752;2023-01-27T00:07:01;98187.75;;;1.51;88.79
70343;BME280;57767;42.068;24.752;2023-01-27T00:08:03;98182.38;;;1.52;88.72
70343;BME280;57767;42.068;24.752;2023-01-27T00:09:05;98180.78;;;1.51;88.41
70343;BME280;57767;42.068;24.752;2023-01-27T00:10:08;98175.22;;;1.54;88.46
70343;BME280;57767;42.068;24.752;2023-01-27T00:11:10;98176.84;;;1.55;88.35
70343;BME280;57767;42.068;24.752;2023-01-27T00:12:31;98175.22;;;1.54;88.46
70343;BME280;57767;42.068;24.752;2023-01-27T00:13:51;98176.03;;;1.55;88.57
70343;BME280;57767;42.068;24.752;2023-01-27T00:14:53;98168.75;;;1.50;88.40
70343;BME280;57767;42.068;24.752;2023-01-27T00:15:55;98158.66;;;1.47;88.33
70343;BME280;57767;42.068;24.752;2023-01-27T00:16:56;98168.38;;;1.61;87.95
70343;BME280;57767;42.068;24.752;2023-01-27T00:17:59;98171.28;;;1.66;88.18
70343;BME280;57767;42.068;24.752;2023-01-27T00:19:00;98158.31;;;1.58;87.99
70343;BME280;57767;42.068;24.752;2023-01-27T00:20:03;98152.44;;;1.56;88.15
70343;BME280;57767;42.068;24.752;2023-01-27T00:21:05;98160.06;;;1.66;88.32
70343;BME280;57767;42.068;24.752;2023-01-27T00:22:26;98148.81;;;1.65;87.83
70343;BME280;57767;42.068;24.752;2023-01-27T00:23:46;98144.28;;;1.67;87.98
70343;BME280;57767;42.068;24.752;2023-01-27T00:25:07;98130.97;;;1.62;88.02
70343;BME280;57767;42.068;24.752;2023-01-27T00:26:14;98131.44;;;1.66;87.83
70343;BME280;57767;42.068;24.752;2023-01-27T00:27:16;98138.25;;;1.67;87.86
70343;BME280;57767;42.068;24.752;2023-01-27T00:28:18;98130.63;;;1.65;87.71
70343;BME280;57767;42.068;24.752;2023-01-27T00:29:23;98142.97;;;1.71;87.41
70343;BME280;57767;42.068;24.752;2023-01-27T00:30:25;98141.66;;;1.75;87.63
70343;BME280;57767;42.068;24.752;2023-01-27T00:31:26;98134.34;;;1.71;87.35
70343;BME280;57767;42.068;24.752;2023-01-27T00:32:47;98135.81;;;1.73;87.34
70343;BME280;57767;42.068;24.752;2023-01-27T00:34:07;98124.25;;;1.68;87.36
70343;BME280;57767;42.068;24.752;2023-01-27T00:35:12;98129.63;;;1.66;87.38
70343;BME280;57767;42.068;24.752;2023-01-27T00:36:16;98140.69;;;1.68;87.19
70343;BME280;57767;42.068;24.752;2023-01-27T00:37:18;98142.66;;;1.66;87.20
70343;BME280;57767;42.068;24.752;2023-01-27T00:38:21;98147.53;;;1.69;87.30
70343;BME280;57767;42.068;24.752;2023-01-27T00:39:22;98148.50;;;1.68;87.21
70343;BME280;57767;42.068;24.752;2023-01-27T00:40:24;98142.47;;;1.68;87.23
70343;BME280;57767;42.068;24.752;2023-01-27T00:41:26;98145.91;;;1.68;87.25
70343;BME280;57767;42.068;24.752;2023-01-27T00:42:29;98134.56;;;1.61;87.67
70343;BME280;57767;42.068;24.752;2023-01-27T00:43:30;98139.72;;;1.69;87.46
70343;BME280;57767;42.068;24.752;2023-01-27T00:44:32;98140.38;;;1.71;87.37
70343;BME280;57767;42.068;24.752;2023-01-27T00:45:34;98136.94;;;1.71;87.24
70343;BME280;57767;42.068;24.752;2023-01-27T00:46:51;98135.81;;;1.73;87.42
70343;BME280;57767;42.068;24.752;2023-01-27T00:47:53;98130.75;;;1.72;87.39
70343;BME280;57767;42.068;24.752;2023-01-27T00:48:55;98134.66;;;1.76;87.43
70343;BME280;57767;42.068;24.752;2023-01-27T00:49:57;98134.19;;;1.72;87.54
70343;BME280;57767;42.068;24.752;2023-01-27T00:50:59;98136.44;;;1.75;87.65
70343;BME280;57767;42.068;24.752;2023-01-27T00:52:01;98122.97;;;1.72;87.22
70343;BME280;57767;42.068;24.752;2023-01-27T00:53:02;98136.56;;;1.82;87.30
70343;BME280;57767;42.068;24.752;2023-01-27T00:54:05;98124.19;;;1.84;87.29
70343;BME280;57767;42.068;24.752;2023-01-27T00:55:07;98125.19;;;1.83;87.22
70343;BME280;57767;42.068;24.752;2023-01-27T00:56:09;98125.81;;;1.85;87.38
70343;BME280;57767;42.068;24.752;2023-01-27T00:57:11;98119.81;;;1.85;87.09
70343;BME280;57767;42.068;24.752;2023-01-27T00:58:13;98122.06;;;1.88;86.81
70343;BME280;57767;42.068;24.752;2023-01-27T00:59:15;98110.53;;;1.82;86.95
70343;BME280;57767;42.068;24.752;2023-01-27T01:00:16;98115.25;;;1.78;86.92
70343;BME280;57767;42.068;24.752;2023-01-27T01:01:18;98098.66;;;1.79;87.14
70343;BME280;57767;42.068;24.752;2023-01-27T01:02:20;98108.09;;;1.80;86.84
70343;BME280;57767;42.068;24.752;2023-01-27T01:03:22;98086.03;;;1.76;86.73
70343;BME280;57767;42.068;24.752;2023-01-27T01:04:24;98083.69;;;1.82;86.97
70343;BME280;57767;42.068;24.752;2023-01-27T01:05:25;98079.81;;;1.77;87.14
70343;BME280;57767;42.068;24.752;2023-01-27T01:06:27;98067.81;;;1.76;86.89
70343;BME280;57767;42.068;24.752;2023-01-27T01:07:29;98073.91;;;1.61;87.12
70343;BME280;57767;42.068;24.752;2023-01-27T01:08:32;98069.19;;;1.56;87.52
70343;BME280;57767;42.068;24.752;2023-01-27T01:09:34;98068.03;;;1.59;87.58
70343;BME280;57767;42.068;24.752;2023-01-27T01:10:37;98073.91;;;1.61;87.49
70343;BME280;57767;42.068;24.752;2023-01-27T01:11:39;98064.63;;;1.58;87.60
70343;BME280;57767;42.068;24.752;2023-01-27T01:12:41;98051.75;;;1.65;87.77
70343;BME280;57767;42.068;24.752;2023-01-27T01:13:43;98055.19;;;1.57;87.90
70343;BME280;57767;42.068;24.752;2023-01-27T01:14:45;98048.25;;;1.50;88.04
70343;BME280;57767;42.068;24.752;2023-01-27T01:15:47;98051.03;;;1.48;87.99
70343;BME280;57767;42.068;24.752;2023-01-27T01:16:49;98067.28;;;1.50;88.12
70343;BME280;57767;42.068;24.752;2023-01-27T01:17:51;98090.88;;;1.49;88.17
70343;BME280;57767;42.068;24.752;2023-01-27T01:18:52;98102.25;;;1.48;88.11
70343;BME280;57767;42.068;24.752;2023-01-27T01:19:54;98116.88;;;1.49;88.17
70343;BME280;57767;42.068;24.752;2023-01-27T01:20:56;98123.19;;;1.54;88.31
70343;BME280;57767;42.068;24.752;2023-01-27T01:21:58;98125.28;;;1.59;87.94
70343;BME280;57767;42.068;24.752;2023-01-27T01:22:59;98121.56;;;1.53;88.06
70343;BME280;57767;42.068;24.752;2023-01-27T01:24:01;98118.63;;;1.56;88.17
70343;BME280;57767;42.068;24.752;2023-01-27T01:25:03;98119.59;;;1.55;88.27
70343;BME280;57767;42.068;24.752;2023-01-27T01:26:06;98109.72;;;1.51;88.13
70343;BME280;57767;42.068;24.752;2023-01-27T01:27:07;98119.28;;;1.58;88.15
70343;BME280;57767;42.068;24.752;2023-01-27T01:28:09;98132.28;;;1.58;88.29
70343;BME280;57767;42.068;24.752;2023-01-27T01:29:11;98133.25;;;1.57;87.80
70343;BME280;57767;42.068;24.752;2023-01-27T01:30:13;98129.03;;;1.56;87.81
70343;BME280;57767;42.068;24.752;2023-01-27T01:31:17;98129.50;;;1.60;88.12
70343;BME280;57767;42.068;24.752;2023-01-27T01:32:19;98127.41;;;1.63;88.35
70343;BME280;57767;42.068;24.752;2023-01-27T01:33:21;98124.09;;;1.69;87.99
70343;BME280;57767;42.068;24.752;2023-01-27T01:34:23;98115.78;;;1.74;87.80
70343;BME280;57767;42.068;24.752;2023-01-27T01:35:24;98114.47;;;1.78;87.99
70343;BME280;57767;42.068;24.752;2023-01-27T01:36:26;98113.13;;;1.82;87.60
70343;BME280;57767;42.068;24.752;2023-01-27T01:37:28;98114.59;;;1.85;87.43
70343;BME280;57767;42.068;24.752;2023-01-27T01:38:30;98119.09;;;1.91;87.21
70343;BME280;57767;42.068;24.752;2023-01-27T01:39:31;98114.53;;;1.93;86.74
70343;BME280;57767;42.068;24.752;2023-01-27T01:40:33;98113.56;;;1.94;86.87
70343;BME280;57767;42.068;24.752;2023-01-27T01:41:35;98113.09;;;1.90;86.59
70343;BME280;57767;42.068;24.752;2023-01-27T01:42:53;98108.41;;;1.86;86.08
70343;BME280;57767;42.068;24.752;2023-01-27T01:43:55;98111.13;;;1.92;86.01
70343;BME280;57767;42.068;24.752;2023-01-27T01:46:33;98106.56;;;1.94;86.13
70343;BME280;57767;42.068;24.752;2023-01-27T01:47:34;98100.84;;;1.99;86.05
70343;BME280;57767;42.068;24.752;2023-01-27T01:48:42;98088.00;;;1.97;85.65
70343;BME280;57767;42.068;24.752;2023-01-27T01:49:47;98090.91;;;2.02;85.85
70343;BME280;57767;42.068;24.752;2023-01-27T01:51:11;98093.31;;;2.04;85.34
70343;BME280;57767;42.068;24.752;2023-01-27T01:52:17;98085.72;;;2.02;85.36
70343;BME280;57767;42.068;24.752;2023-01-27T01:53:22;98090.22;;;2.08;85.60
70343;BME280;57767;42.068;24.752;2023-01-27T01:54:43;98075.81;;;1.98;85.19
70343;BME280;57767;42.068;24.752;2023-01-27T01:55:47;98088.13;;;2.04;85.85
70343;BME280;57767;42.068;24.752;2023-01-27T01:56:56;98087.19;;;1.97;85.86
70343;BME280;57767;42.068;24.752;2023-01-27T01:57:59;98086.72;;;1.93;85.84
70343;BME280;57767;42.068;24.752;2023-01-27T01:59:06;98086.72;;;1.93;85.89
70343;BME280;57767;42.068;24.752;2023-01-27T02:00:10;98088.66;;;1.99;85.94
70343;BME280;57767;42.068;24.752;2023-01-27T02:01:15;98086.50;;;2.03;86.04
70343;BME280;57767;42.068;24.752;2023-01-27T02:02:19;98092.19;;;2.06;85.87
70343;BME280;57767;42.068;24.752;2023-01-27T02:03:27;98079.69;;;2.02;85.45
70343;BME280;57767;42.068;24.752;2023-01-27T02:04:34;98081.75;;;2.06;85.48
70343;BME280;57767;42.068;24.752;2023-01-27T02:05:40;98091.50;;;2.12;85.34
70343;BME280;57767;42.068;24.752;2023-01-27T02:07:02;98082.22;;;2.10;85.38
70343;BME280;57767;42.068;24.752;2023-01-27T02:08:08;98080.28;;;2.12;85.13
70343;BME280;57767;42.068;24.752;2023-01-27T02:09:11;98069.84;;;2.12;85.28
70343;BME280;57767;42.068;24.752;2023-01-27T02:10:13;98056.84;;;2.12;85.47
70343;BME280;57767;42.068;24.752;2023-01-27T02:11:15;98056.84;;;2.12;85.31
70343;BME280;57767;42.068;24.752;2023-01-27T02:12:17;98061.97;;;2.20;85.52
70343;BME280;57767;42.068;24.752;2023-01-27T02:13:19;98047.22;;;2.12;85.21
70343;BME280;57767;42.068;24.752;2023-01-27T02:14:21;98056.44;;;2.23;85.25
70343;BME280;57767;42.068;24.752;2023-01-27T02:15:23;98056.44;;;2.23;85.24
70343;BME280;57767;42.068;24.752;2023-01-27T02:16:25;98049.09;;;2.27;84.86
70343;BME280;57767;42.068;24.752;2023-01-27T02:17:27;98056.44;;;2.23;84.95
70343;BME280;57767;42.068;24.752;2023-01-27T02:18:29;98048.28;;;2.26;85.00
70343;BME280;57767;42.068;24.752;2023-01-27T02:21:12;98057.06;;;2.25;84.66
70343;BME280;57767;42.068;24.752;2023-01-27T02:22:21;98052.19;;;2.22;84.97
70343;BME280;57767;42.068;24.752;2023-01-27T02:23:45;98038.19;;;2.23;84.71
70343;BME280;57767;42.068;24.752;2023-01-27T02:24:53;98023.38;;;2.24;84.39
70343;BME280;57767;42.068;24.752;2023-01-27T02:27:11;98019.31;;;2.21;84.67
70343;BME280;57767;42.068;24.752;2023-01-27T02:28:14;98024.81;;;2.26;84.88
70343;BME280;57767;42.068;24.752;2023-01-27T02:29:16;98013.59;;;2.26;84.58
70343;BME280;57767;42.068;24.752;2023-01-27T02:30:19;98019.25;;;2.29;84.50
70343;BME280;57767;42.068;24.752;2023-01-27T02:31:21;98019.63;;;2.26;84.69
70343;BME280;57767;42.068;24.752;2023-01-27T02:32:24;98021.25;;;2.27;84.27
70343;BME280;57767;42.068;24.752;2023-01-27T02:33:26;98026.97;;;2.23;84.32
70343;BME280;57767;42.068;24.752;2023-01-27T02:34:31;98030.22;;;2.25;84.69
70343;BME280;57767;42.068;24.752;2023-01-27T02:37:03;98020.44;;;2.27;85.06
70343;BME280;57767;42.068;24.752;2023-01-27T02:38:06;98001.09;;;2.21;84.82
70343;BME280;57767;42.068;24.752;2023-01-27T02:39:12;97998.78;;;2.26;84.90
70343;BME280;57767;42.068;24.752;2023-01-27T02:40:15;98003.63;;;2.29;85.16
70343;BME280;57767;42.068;24.752;2023-01-27T02:41:34;98012.06;;;2.31;84.81
70343;BME280;57767;42.068;24.752;2023-01-27T02:42:37;98015.56;;;2.24;84.84
70343;BME280;57767;42.068;24.752;2023-01-27T02:43:39;98019.16;;;2.23;85.07
70343;BME280;57767;42.068;24.752;2023-01-27T02:44:41;98018.22;;;2.15;85.04
70343;BME280;57767;42.068;24.752;2023-01-27T02:45:45;98025.50;;;2.20;85.24
70343;BME280;57767;42.068;24.752;2023-01-27T02:46:47;98008.00;;;2.14;85.08
70343;BME280;57767;42.068;24.752;2023-01-27T02:47:49;98016.06;;;2.19;84.99
70343;BME280;57767;42.068;24.752;2023-01-27T02:48:51;98013.78;;;2.24;85.53
70343;BME280;57767;42.068;24.752;2023-01-27T02:49:52;98019.63;;;2.26;85.02
70343;BME280;57767;42.068;24.752;2023-01-27T02:50:54;98017.00;;;2.26;84.81
70343;BME280;57767;42.068;24.752;2023-01-27T02:51:56;98024.03;;;2.26;84.82
70343;BME280;57767;42.068;24.752;2023-01-27T02:52:58;98018.00;;;2.25;84.80
70343;BME280;57767;42.068;24.752;2023-01-27T02:54:00;98019.25;;;2.29;84.99
70343;BME280;57767;42.068;24.752;2023-01-27T02:55:01;98010.88;;;2.19;84.58
70343;BME280;57767;42.068;24.752;2023-01-27T02:56:04;98022.28;;;2.18;84.79
70343;BME280;57767;42.068;24.752;2023-01-27T02:57:06;98020.22;;;2.13;85.53
70343;BME280;57767;42.068;24.752;2023-01-27T02:58:08;98008.00;;;2.14;85.61
70343;BME280;57767;42.068;24.752;2023-01-27T02:59:09;98010.81;;;2.04;85.71
70343;BME280;57767;42.068;24.752;2023-01-27T03:00:11;98006.78;;;2.02;85.96
70343;BME280;57767;42.068;24.752;2023-01-27T03:01:14;98011.28;;;2.08;86.09
70343;BME280;57767;42.068;24.752;2023-01-27T03:02:16;98008.22;;;2.04;86.38
70343;BME280;57767;42.068;24.752;2023-01-27T03:03:23;98010.06;;;1.96;86.30
70343;BME280;57767;42.068;24.752;2023-01-27T03:04:25;98000.53;;;1.88;86.40
70343;BME280;57767;42.068;24.752;2023-01-27T03:05:27;97996.50;;;1.86;86.62
70343;BME280;57767;42.068;24.752;2023-01-27T03:06:28;98004.78;;;1.89;87.05
70343;BME280;57767;42.068;24.752;2023-01-27T03:07:30;97992.66;;;1.96;87.08
70343;BME280;57767;42.068;24.752;2023-01-27T03:08:32;97989.09;;;1.97;87.07
70343;BME280;57767;42.068;24.752;2023-01-27T03:09:34;97992.41;;;2.06;86.87
70343;BME280;57767;42.068;24.752;2023-01-27T03:10:35;97991.44;;;2.07;86.84
70343;BME280;57767;42.068;24.752;2023-01-27T03:11:37;97991.25;;;2.08;86.80
70343;BME280;57767;42.068;24.752;2023-01-27T03:12:58;97979.22;;;2.07;86.48
70343;BME280;57767;42.068;24.752;2023-01-27T03:13:59;97994.59;;;2.17;86.28
70343;BME280;57767;42.068;24.752;2023-01-27T03:15:01;97990.22;;;2.17;86.53
70343;BME280;57767;42.068;24.752;2023-01-27T03:16:22;97984.47;;;2.22;86.22
70343;BME280;57767;42.068;24.752;2023-01-27T03:17:42;97984.94;;;2.26;85.90
70343;BME280;57767;42.068;24.752;2023-01-27T03:19:02;97999.59;;;2.27;85.79
70343;BME280;57767;42.068;24.752;2023-01-27T03:20:04;97997.16;;;2.25;86.01
70343;BME280;57767;42.068;24.752;2023-01-27T03:21:06;97993.56;;;2.26;85.72
70343;BME280;57767;42.068;24.752;2023-01-27T03:22:08;98010.09;;;2.33;85.12
70343;BME280;57767;42.068;24.752;2023-01-27T03:23:11;98023.75;;;2.35;85.04
70343;BME280;57767;42.068;24.752;2023-01-27T03:24:13;98022.94;;;2.35;84.80
70343;BME280;57767;42.068;24.752;2023-01-27T03:25:15;98032.56;;;2.34;85.16
70343;BME280;57767;42.068;24.752;2023-01-27T03:26:17;98026.06;;;2.30;85.12
70343;BME280;57767;42.068;24.752;2023-01-27T03:27:19;98033.84;;;2.38;85.22
70343;BME280;57767;42.068;24.752;2023-01-27T03:28:20;98022.84;;;2.28;84.78
70343;BME280;57767;42.068;24.752;2023-01-27T03:29:22;98025.09;;;2.31;85.06
70343;BME280;57767;42.068;24.752;2023-01-27T03:30:43;98024.91;;;2.33;84.72
70343;BME280;57767;42.068;24.752;2023-01-27T03:31:44;98020.19;;;2.36;85.15
70343;BME280;57767;42.068;24.752;2023-01-27T03:32:46;98014.16;;;2.36;85.04
70343;BME280;57767;42.068;24.752;2023-01-27T03:33:48;98002.81;;;2.29;85.07
70343;BME280;57767;42.068;24.752;2023-01-27T03:34:50;98015.44;;;2.40;84.70
70343;BME280;57767;42.068;24.752;2023-01-27T03:35:52;98012.28;;;2.44;84.84
70343;BME280;57767;42.068;24.752;2023-01-27T03:37:12;98013.91;;;2.45;85.04
70343;BME280;57767;42.068;24.752;2023-01-27T03:38:33;98010.66;;;2.43;84.62
70343;BME280;57767;42.068;24.752;2023-01-27T03:39:53;98017.31;;;2.46;84.60
70343;BME280;57767;42.068;24.752;2023-01-27T03:41:14;98018.75;;;2.48;84.65
70343;BME280;57767;42.068;24.752;2023-01-27T03:42:35;98022.34;;;2.47;83.91
70343;BME280;57767;42.068;24.752;2023-01-27T03:43:55;98022.00;;;2.50;83.74
70343;BME280;57767;42.068;24.752;2023-01-27T03:45:16;98018.75;;;2.48;84.15
70343;BME280;57767;42.068;24.752;2023-01-27T03:46:37;98018.59;;;2.50;83.56
70343;BME280;57767;42.068;24.752;2023-01-27T03:47:38;98022.00;;;2.50;83.92
70343;BME280;57767;42.068;24.752;2023-01-27T03:48:40;98013.38;;;2.50;83.63
70343;BME280;57767;42.068;24.752;2023-01-27T03:49:42;98006.72;;;2.47;83.57
70343;BME280;57767;42.068;24.752;2023-01-27T03:50:44;98020.38;;;2.49;83.84
70343;BME280;57767;42.068;24.752;2023-01-27T03:51:45;98011.59;;;2.50;83.95
70343;BME280;57767;42.068;24.752;2023-01-27T03:52:49;98004.28;;;2.46;83.35
70343;BME280;57767;42.068;24.752;2023-01-27T03:54:03;98010.31;;;2.46;83.43
70343;BME280;57767;42.068;24.752;2023-01-27T03:55:06;98019.22;;;2.52;83.65
70343;BME280;57767;42.068;24.752;2023-01-27T03:56:10;98015.63;;;2.53;83.55
70343;BME280;57767;42.068;24.752;2023-01-27T03:57:12;98011.41;;;2.52;83.33
70343;BME280;57767;42.068;24.752;2023-01-27T03:58:25;98006.38;;;2.50;83.62
70343;BME280;57767;42.068;24.752;2023-01-27T03:59:27;98016.69;;;2.44;83.85
70343;BME280;57767;42.068;24.752;2023-01-27T04:00:29;98018.31;;;2.45;83.43
70343;BME280;57767;42.068;24.752;2023-01-27T04:01:33;98021.06;;;2.43;83.65
70343;BME280;57767;42.068;24.752;2023-01-27T04:02:34;98021.06;;;2.43;83.54
70343;BME280;57767;42.068;24.752;2023-01-27T04:03:55;98011.03;;;2.40;83.45
70343;BME280;57767;42.068;24.752;2023-01-27T04:05:16;97997.38;;;2.38;84.04
70343;BME280;57767;42.068;24.752;2023-01-27T04:06:38;97996.91;;;2.35;84.33
70343;BME280;57767;42.068;24.752;2023-01-27T04:07:53;97990.25;;;2.32;84.20
70343;BME280;57767;42.068;24.752;2023-01-27T04:08:56;97978.94;;;2.25;84.22
70343;BME280;57767;42.068;24.752;2023-01-27T04:09:58;97987.47;;;2.34;84.08
70343;BME280;57767;42.068;24.752;2023-01-27T04:11:02;97993.31;;;2.36;84.33
70343;BME280;57767;42.068;24.752;2023-01-27T04:12:22;97982.91;;;2.36;83.89
70343;BME280;57767;42.068;24.752;2023-01-27T04:13:24;97982.38;;;2.40;84.05
70343;BME280;57767;42.068;24.752;2023-01-27T04:14:36;97982.97;;;2.42;84.04
70343;BME280;57767;42.068;24.752;2023-01-27T04:15:39;97979.41;;;2.43;84.35
70343;BME280;57767;42.068;24.752;2023-01-27T04:16:41;97982.47;;;2.47;83.72
70343;BME280;57767;42.068;24.752;2023-01-27T04:17:42;97979.03;;;2.46;83.36
70343;BME280;57767;42.068;24.752;2023-01-27T04:18:45;97972.84;;;2.47;84.07
70343;BME280;57767;42.068;24.752;2023-01-27T04:19:50;97977.72;;;2.50;83.28
70343;BME280;57767;42.068;24.752;2023-01-27T04:20:52;97979.94;;;2.53;83.06
70343;BME280;57767;42.068;24.752;2023-01-27T04:21:54;97977.34;;;2.53;83.33
70343;BME280;57767;42.068;24.752;2023-01-27T04:22:57;97964.41;;;2.45;83.50
70343;BME280;57767;42.068;24.752;2023-01-27T04:23:59;97978.94;;;2.55;83.27
70343;BME280;57767;42.068;24.752;2023-01-27T04:25:01;97973.75;;;2.55;82.88
70343;BME280;57767;42.068;24.752;2023-01-27T04:26:02;97968.53;;;2.55;83.00
70343;BME280;57767;42.068;24.752;2023-01-27T04:27:10;97964.31;;;2.53;83.36
70343;BME280;57767;42.068;24.752;2023-01-27T04:28:12;97965.41;;;2.59;83.19
70343;BME280;57767;42.068;24.752;2023-01-27T04:29:14;97972.06;;;2.62;82.85
70343;BME280;57767;42.068;24.752;2023-01-27T04:30:17;97970.09;;;2.64;82.73
70343;BME280;57767;42.068;24.752;2023-01-27T04:31:18;97959.66;;;2.64;82.24
70343;BME280;57767;42.068;24.752;2023-01-27T04:32:20;97950.56;;;2.60;82.85
70343;BME280;57767;42.068;24.752;2023-01-27T04:33:22;97960.91;;;2.68;82.85
70343;BME280;57767;42.068;24.752;2023-01-27T04:34:24;97966.50;;;2.65;82.43
70343;BME280;57767;42.068;24.752;2023-01-27T04:35:26;97970.25;;;2.62;82.34
70343;BME280;57767;42.068;24.752;2023-01-27T04:36:39;97971.72;;;2.65;82.64
70343;BME280;57767;42.068;24.752;2023-01-27T04:37:42;97967.47;;;2.64;82.82
70343;BME280;57767;42.068;24.752;2023-01-27T04:38:43;97969.28;;;2.63;82.43
70343;BME280;57767;42.068;24.752;2023-01-27T04:39:45;97962.28;;;2.64;82.31
70343;BME280;57767;42.068;24.752;2023-01-27T04:40:47;97962.91;;;2.66;82.26
70343;BME280;57767;42.068;24.752;2023-01-27T04:41:49;97967.72;;;2.69;82.44
70343;BME280;57767;42.068;24.752;2023-01-27T04:42:52;97967.72;;;2.69;82.33
70343;BME280;57767;42.068;24.752;2023-01-27T04:43:54;97976.19;;;2.71;82.56
70343;BME280;57767;42.068;24.752;2023-01-27T04:44:56;97967.72;;;2.69;82.26
70343;BME280;57767;42.068;24.752;2023-01-27T04:45:58;97968.38;;;2.71;82.26
70343;BME280;57767;42.068;24.752;2023-01-27T04:47:00;97976.19;;;2.71;82.30
70343;BME280;57767;42.068;24.752;2023-01-27T04:48:02;97981.41;;;2.71;81.99
70343;BME280;57767;42.068;24.752;2023-01-27T04:49:04;97978.63;;;2.72;82.21
70343;BME280;57767;42.068;24.752;2023-01-27T04:50:07;97982.22;;;2.71;82.42
70343;BME280;57767;42.068;24.752;2023-01-27T04:51:08;97976.19;;;2.71;82.14
70343;BME280;57767;42.068;24.752;2023-01-27T04:52:10;97974.22;;;2.73;81.55
70343;BME280;57767;42.068;24.752;2023-01-27T04:53:12;97977.47;;;2.75;82.20
70343;BME280;57767;42.068;24.752;2023-01-27T04:54:14;97973.59;;;2.71;81.81
70343;BME280;57767;42.068;24.752;2023-01-27T04:55:16;97955.44;;;2.63;81.65
70343;BME280;57767;42.068;24.752;2023-01-27T04:56:27;97969.34;;;2.70;82.16
70343;BME280;57767;42.068;24.752;2023-01-27T04:57:29;97959.28;;;2.67;81.75
70343;BME280;57767;42.068;24.752;2023-01-27T04:58:31;97956.41;;;2.62;82.11
70343;BME280;57767;42.068;24.752;2023-01-27T04:59:33;97965.75;;;2.71;82.32
70343;BME280;57767;42.068;24.752;2023-01-27T05:00:35;97967.38;;;2.72;81.84
70343;BME280;57767;42.068;24.752;2023-01-27T05:01:37;97962.16;;;2.72;82.05
70343;BME280;57767;42.068;24.752;2023-01-27T05:02:39;97958.13;;;2.69;81.75
70343;BME280;57767;42.068;24.752;2023-01-27T05:03:40;97950.47;;;2.68;81.81
70343;BME280;57767;42.068;24.752;2023-01-27T05:04:42;97962.97;;;2.72;81.72
70343;BME280;57767;42.068;24.752;2023-01-27T05:05:44;97956.31;;;2.70;81.62
70343;BME280;57767;42.068;24.752;2023-01-27T05:06:46;97968.19;;;2.72;82.05
70343;BME280;57767;42.068;24.752;2023-01-27T05:07:47;97965.75;;;2.71;81.68
70343;BME280;57767;42.068;24.752;2023-01-27T05:08:49;97978.97;;;2.69;82.28
70343;BME280;57767;42.068;24.752;2023-01-27T05:09:51;97979.25;;;2.60;82.50
70343;BME280;57767;42.068;24.752;2023-01-27T05:10:53;97988.16;;;2.65;82.17
70343;BME280;57767;42.068;24.752;2023-01-27T05:11:55;97985.72;;;2.64;81.99
70343;BME280;57767;42.068;24.752;2023-01-27T05:12:57;97974.91;;;2.67;82.52
70343;BME280;57767;42.068;24.752;2023-01-27T05:13:59;97984.91;;;2.63;82.82
70343;BME280;57767;42.068;24.752;2023-01-27T05:15:00;97988.16;;;2.65;82.56
70343;BME280;57767;42.068;24.752;2023-01-27T05:17:08;97992.34;;;2.66;82.69
70343;BME280;57767;42.068;24.752;2023-01-27T05:18:10;97998.75;;;2.64;82.73
70343;BME280;57767;42.068;24.752;2023-01-27T05:19:11;98002.53;;;2.61;82.24
70343;BME280;57767;42.068;24.752;2023-01-27T05:20:13;98008.53;;;2.62;82.67
70343;BME280;57767;42.068;24.752;2023-01-27T05:21:18;98002.78;;;2.66;82.58
70343;BME280;57767;42.068;24.752;2023-01-27T05:22:20;97990.94;;;2.64;82.46
70343;BME280;57767;42.068;24.752;2023-01-27T05:23:22;97995.78;;;2.67;82.40
70343;BME280;57767;42.068;24.752;2023-01-27T05:24:36;97989.66;;;2.60;82.49
70343;BME280;57767;42.068;24.752;2023-01-27T05:25:44;97996.50;;;2.61;82.74
70343;BME280;57767;42.068;24.752;2023-01-27T05:26:46;98008.19;;;2.65;82.56
70343;BME280;57767;42.068;24.752;2023-01-27T05:27:47;98002.97;;;2.65;82.35
70343;BME280;57767;42.068;24.752;2023-01-27T05:28:50;97998.59;;;2.65;82.76
70343;BME280;57767;42.068;24.752;2023-01-27T05:29:52;97998.13;;;2.62;83.11
70343;BME280;57767;42.068;24.752;2023-01-27T05:31:03;98002.00;;;2.66;82.95
70343;BME280;57767;42.068;24.752;2023-01-27T05:32:05;98000.97;;;2.67;82.83
70343;BME280;57767;42.068;24.752;2023-01-27T05:33:06;97997.78;;;2.65;82.52
70343;BME280;57767;42.068;24.752;2023-01-27T05:34:08;98000.16;;;2.66;82.08
70343;BME280;57767;42.068;24.752;2023-01-27T05:35:10;97986.16;;;2.53;82.43
70343;BME280;57767;42.068;24.752;2023-01-27T05:36:14;98011.41;;;2.67;82.28
70343;BME280;57767;42.068;24.752;2023-01-27T05:37:17;98010.44;;;2.68;82.52
70343;BME280;57767;42.068;24.752;2023-01-27T05:38:18;98007.00;;;2.67;82.94
70343;BME280;57767;42.068;24.752;2023-01-27T05:39:20;98010.44;;;2.68;82.32
70343;BME280;57767;42.068;24.752;2023-01-27T05:40:22;98007.00;;;2.67;82.65
70343;BME280;57767;42.068;24.752;2023-01-27T05:41:24;98009.81;;;2.66;82.53
70343;BME280;57767;42.068;24.752;2023-01-27T05:42:25;98006.75;;;2.62;82.71
70343;BME280;57767;42.068;24.752;2023-01-27T05:43:32;98010.59;;;2.66;82.48
70343;BME280;57767;42.068;24.752;2023-01-27T05:44:34;98004.59;;;2.66;83.05
70343;BME280;57767;42.068;24.752;2023-01-27T05:45:36;97991.63;;;2.58;82.42
70343;BME280;57767;42.068;24.752;2023-01-27T05:46:39;98012.03;;;2.69;82.66
70343;BME280;57767;42.068;24.752;2023-01-27T05:47:41;98009.81;;;2.66;82.86
70343;BME280;57767;42.068;24.752;2023-01-27T05:48:52;98013.66;;;2.70;82.89